Terminal Aerodrome Forecast
Issued by NWS

Current Version | Previous Version | Text Only | Print | Product List | Glossary On
Versions: 1 2 3 4 5 6 7 8 9 10 11 12 13 14 15 16
000
FTAK31 PANC 271124
TAFAIL
TAF
PAIL 271124Z 2712/2812 05005KT P6SM -SHRA SCT010 BKN050 OVC070
      TEMPO 2712/2716 BKN010 OVC030
     FM271600 06007KT P6SM VCSH SCT030 OVC050
     FM272100 07010KT P6SM -SHRA BKN030 OVC050
     FM280400 VRB05KT P6SM VCSH BKN040 OVC080=

USA.gov is the U.S. government's official web portal to all federal, state and local government web resources and services.